»·PEaware :: AAL2307 KLAS-KLAX

AAL2307 :: KLAS-KLAX

FLIGHT INFORMATION

Flight Status: Arrived
Operator:
American Airlines
More flights by this operator :: More flights under this callsign
Pilot: Eric H. (28479)
Aircraft: AIRBUS A319
(A319)
More flights by this aircraft type
Origin: KLAS McCarran Intl
United States
Destination: KLAX Los Angeles Intl
United States
More flights between these airports :: More routes between these airports
Route: +BOACH8 RIKII SHTNR ANJLL4
File this flight plan on PilotEdge
Remarks:
Altitude:
(Current/Filed)
28,000ft
Speed:
(Current/Filed)
449kts
Departed: 19-Mar-20 08:10 PM
Arrived: 19-Mar-20 08:51 PM
Distance/Time
Traveled:
205nm/0:41
Distance/Time
To Go:
Arrived

Flight Plot

Page will automatically refresh every two minutes.

Flight plan parsing failed; only flown route is shown


Map Options




Map Legend


Flown Route
Filed Route
Departure Airport
Arrival Airport
Navaid (VOR, NDB)
Fix

Horizontal Profiles

Position Reports

Time Latitude Longitude Heading Altitude Ground
Speed
19-Mar-20 19:30 36.080001 -115.140313 55 2077ft 0kts
19-Mar-20 19:31 36.080001 -115.140313 55 2077ft 0kts
19-Mar-20 19:32 36.080001 -115.140313 55 2077ft 0kts
19-Mar-20 19:33 36.080001 -115.140313 55 2077ft 0kts
19-Mar-20 19:34 36.080001 -115.140313 55 2077ft 0kts
19-Mar-20 19:35 36.080001 -115.140313 55 2077ft 0kts
19-Mar-20 19:36 36.080001 -115.140313 55 2077ft 0kts
19-Mar-20 19:37 36.080001 -115.140313 55 2077ft 0kts
19-Mar-20 19:38 36.080001 -115.140313 55 2077ft 0kts
19-Mar-20 19:39 36.080001 -115.140313 55 2077ft 0kts
19-Mar-20 19:40 36.080001 -115.140313 55 2077ft 0kts
19-Mar-20 19:41 36.080001 -115.140313 55 2077ft 0kts
19-Mar-20 19:41 36.080001 -115.140313 55 2077ft 0kts
19-Mar-20 19:43 36.080001 -115.140313 55 2077ft 0kts
19-Mar-20 19:44 36.080001 -115.140313 55 2077ft 0kts
19-Mar-20 19:44 36.080001 -115.140313 55 2077ft 0kts
19-Mar-20 19:45 36.080001 -115.140313 55 2077ft 0kts
19-Mar-20 19:47 36.080001 -115.140313 55 2077ft 0kts
19-Mar-20 19:47 36.080001 -115.140313 55 2077ft 0kts
19-Mar-20 19:48 36.080001 -115.140313 55 2077ft 0kts
19-Mar-20 19:49 36.080001 -115.140313 55 2077ft 0kts
19-Mar-20 19:50 36.080001 -115.140313 55 2077ft 0kts
19-Mar-20 19:51 36.080001 -115.140313 55 2077ft 0kts
19-Mar-20 19:52 36.080001 -115.140313 55 2077ft 0kts
19-Mar-20 19:53 36.079861 -115.140508 39 2078ft 2kts
19-Mar-20 19:54 36.079301 -115.140725 353 2080ft 2kts
19-Mar-20 19:55 36.078780 -115.140387 311 2080ft 2kts
19-Mar-20 19:56 36.078400 -115.139898 314 2079ft 2kts
19-Mar-20 19:57 36.078270 -115.139438 269 2078ft 0kts
19-Mar-20 19:58 36.078270 -115.139439 269 2078ft 0kts
19-Mar-20 19:59 36.078270 -115.139439 269 2078ft 0kts
19-Mar-20 20:00 36.078270 -115.139439 269 2078ft 0kts
19-Mar-20 20:01 36.078295 -115.144452 275 2093ft 16kts
19-Mar-20 20:02 36.078698 -115.150049 275 2111ft 15kts
19-Mar-20 20:03 36.079516 -115.153770 336 2124ft 11kts
19-Mar-20 20:04 36.083664 -115.156148 334 2122ft 17kts
19-Mar-20 20:05 36.088585 -115.156918 25 2112ft 23kts
19-Mar-20 20:06 36.094398 -115.153731 24 2088ft 22kts
19-Mar-20 20:07 36.097961 -115.152378 302 2078ft 0kts
19-Mar-20 20:08 36.097903 -115.153954 205 2082ft 13kts
19-Mar-20 20:09 36.067473 -115.171689 202 4062ft 154kts
19-Mar-20 20:10 36.020129 -115.199722 217 6784ft 234kts
19-Mar-20 20:11 35.983098 -115.274957 241 6997ft 260kts
19-Mar-20 20:12 35.917331 -115.308396 187 10885ft 288kts
19-Mar-20 20:13 35.825671 -115.311688 177 12911ft 375kts
19-Mar-20 20:14 35.715480 -115.298968 177 15707ft 412kts
19-Mar-20 20:15 35.599479 -115.297932 185 18569ft 426kts
19-Mar-20 20:16 35.483060 -115.319976 206 20118ft 428kts
19-Mar-20 20:17 35.379117 -115.393937 213 22372ft 438kts
19-Mar-20 20:18 35.273223 -115.470699 213 24222ft 450kts
19-Mar-20 20:19 35.165010 -115.549082 215 26207ft 450kts
19-Mar-20 20:20 35.072100 -115.647436 229 28134ft 439kts
19-Mar-20 20:21 34.988647 -115.755010 229 28175ft 439kts
19-Mar-20 20:22 34.903784 -115.862153 230 28177ft 441kts
19-Mar-20 20:23 34.818035 -115.969381 230 28184ft 442kts
19-Mar-20 20:24 34.732891 -116.076794 231 28187ft 442kts
19-Mar-20 20:25 34.648047 -116.184896 231 28187ft 441kts
19-Mar-20 20:26 34.563757 -116.291760 231 28184ft 430kts
19-Mar-20 20:27 34.480876 -116.396636 230 27675ft 430kts
19-Mar-20 20:28 34.405816 -116.507557 242 26673ft 423kts
19-Mar-20 20:29 34.352911 -116.633016 246 25598ft 408kts
19-Mar-20 20:30 34.307426 -116.744958 247 24735ft 353kts
19-Mar-20 20:31 34.265112 -116.850362 246 22974ft 347kts
19-Mar-20 20:32 34.223566 -116.953201 246 21093ft 335kts
19-Mar-20 20:33 34.191724 -117.056573 252 19281ft 324kts
19-Mar-20 20:34 34.163946 -117.158670 251 17484ft 316kts
19-Mar-20 20:35 34.136388 -117.258878 251 15661ft 312kts
19-Mar-20 20:36 34.109244 -117.357176 251 14025ft 308kts
19-Mar-20 20:37 34.083992 -117.456568 253 12401ft 307kts
19-Mar-20 20:38 34.064418 -117.552688 258 12009ft 308kts
19-Mar-20 20:39 34.047358 -117.653864 257 12006ft 307kts
19-Mar-20 20:40 34.029841 -117.754768 254 11684ft 307kts
19-Mar-20 20:41 33.999042 -117.849281 243 8761ft 284kts
19-Mar-20 20:42 33.982948 -117.937708 262 7332ft 273kts
19-Mar-20 20:43 33.974690 -118.027857 261 5891ft 268kts
19-Mar-20 20:44 33.965430 -118.115761 261 4463ft 255kts
19-Mar-20 20:45 33.957650 -118.189114 260 3260ft 185kts
19-Mar-20 20:46 33.951941 -118.242867 260 2380ft 138kts
19-Mar-20 20:47 33.947520 -118.284759 260 1726ft 124kts
19-Mar-20 20:48 33.943236 -118.326015 261 1071ft 123kts
19-Mar-20 20:49 33.939020 -118.366674 261 417ft 122kts
19-Mar-20 20:50 33.935563 -118.400851 277 122ft 36kts
19-Mar-20 20:51 33.936125 -118.403226 295 126ft 0kts
19-Mar-20 20:52 33.936253 -118.408775 316 133ft 18kts
19-Mar-20 20:53 33.938877 -118.407147 83 132ft 16kts
19-Mar-20 20:54 33.939828 -118.404640 58 129ft 0kts

Navigation Log

Ident Type
Flight plan parsing failed, navigation log unavailable